Time;durP1;ratioP1;P1;durP2;ratioP2;P2;SDS_P1;SDS_P2;PMS_P1;PMS_P2;Temp;Humidity;BMP_temperature;BMP_pressure;BME280_temperature;BME280_humidity;BME280_pressure;Samples;Min_cycle;Max_cycle;Signal;HPM_P1;HPM_P2
2023/01/06 00:01:46;;;;;;;0.00;0.00;;;;;;;9.45;100.00;100074.94;6098209;23;20140;-81
2023/01/06 00:04:38;;;;;;;0.00;0.00;;;;;;;9.38;100.00;100055.25;6119710;23;20017;-81
2023/01/06 00:07:03;;;;;;;0.00;0.00;;;;;;;9.39;100.00;100056.91;6069183;23;20075;-79
2023/01/06 00:09:29;;;;;;;0.00;0.00;;;;;;;9.50;100.00;100102.22;6120494;23;20728;-79
2023/01/06 00:12:07;;;;;;;;;;;;;;;;;;;;;
2023/01/06 00:14:33;;;;;;;0.03;0.03;;;;;;;9.45;100.00;100099.50;6187601;23;20076;-78
2023/01/06 00:17:22;;;;;;;;;;;;;;;;;;;;;
2023/01/06 00:20:02;;;;;;;0.00;0.00;;;;;;;9.40;100.00;100080.34;6211454;23;20047;-79
2023/01/06 00:22:28;;;;;;;0.00;0.00;;;;;;;9.41;100.00;100076.56;6180007;23;20183;-78
2023/01/06 00:24:53;;;;;;;0.00;0.00;;;;;;;9.46;100.00;100101.13;6207999;23;20038;-79
2023/01/06 00:27:21;;;;;;;0.00;0.00;;;;;;;9.44;100.00;100106.03;6182059;23;20016;-79
2023/01/06 00:29:48;;;;;;;0.10;0.10;;;;;;;9.34;100.00;100095.88;6161155;23;20059;-78
2023/01/06 00:32:14;;;;;;;0.00;0.00;;;;;;;9.43;100.00;100156.25;6185388;23;20004;-78
2023/01/06 00:34:42;;;;;;;0.00;0.00;;;;;;;9.11;100.00;100120.88;6158204;23;20431;-80
2023/01/06 00:37:25;;;;;;;0.00;0.00;;;;;;;8.77;100.00;100122.00;6175448;23;20025;-80
2023/01/06 00:39:50;;;;;;;0.10;0.10;;;;;;;8.52;100.00;100153.44;6156882;23;20001;-78
2023/01/06 00:42:19;;;;;;;0.00;0.00;;;;;;;8.29;100.00;100159.16;6162547;23;20066;-80
2023/01/06 00:44:47;;;;;;;0.00;0.00;;;;;;;8.00;100.00;100140.34;6156920;23;20009;-79
2023/01/06 00:47:13;;;;;;;0.00;0.00;;;;;;;7.77;100.00;100164.06;6159819;23;20039;-80
2023/01/06 00:49:38;;;;;;;0.10;0.10;;;;;;;7.63;100.00;100173.69;6159885;23;20008;-82
2023/01/06 00:52:08;;;;;;;0.00;0.00;;;;;;;7.47;100.00;100170.75;6161301;23;20021;-81
2023/01/06 00:54:59;;;;;;;0.10;0.10;;;;;;;7.66;100.00;100190.31;6189957;23;20054;-78
2023/01/06 00:57:27;;;;;;;0.00;0.00;;;;;;;7.55;100.00;100194.00;6181933;23;20091;-79
2023/01/06 00:59:53;;;;;;;0.00;0.00;;;;;;;7.44;100.00;100201.19;6185443;23;20027;-79
2023/01/06 01:02:20;;;;;;;0.00;0.00;;;;;;;7.27;100.00;100193.06;6210887;23;20435;-78
2023/01/06 01:05:19;;;;;;;0.10;0.10;;;;;;;7.34;100.00;100231.81;6191190;23;20381;-81
2023/01/06 01:17:46;;;;;;;;;;;;;;;;;;;;;
2023/01/06 01:20:47;;;;;;;;;;;;;;;;;;;;;
2023/01/06 01:23:16;;;;;;;0.00;0.00;;;;;;;7.23;100.00;100218.28;6002810;23;20035;-80
2023/01/06 01:26:18;;;;;;;0.00;0.00;;;;;;;7.39;100.00;100233.78;5990524;23;20028;-81
2023/01/06 01:30:25;;;;;;;;;;;;;;;;;;;;;
2023/01/06 01:32:34;;;;;;;0.00;0.00;;;;;;;7.19;100.00;100244.34;5930617;24;20092;-84
2023/01/06 01:39:00;;;;;;;0.00;0.00;;;;;;;6.85;100.00;100211.69;5878837;24;20034;-87
2023/01/06 01:41:29;;;;;;;0.00;0.00;;;;;;;6.84;100.00;100227.19;5893432;24;20005;-79
2023/01/06 01:44:00;;;;;;;0.00;0.00;;;;;;;6.57;100.00;100205.25;5894921;24;20029;-79
2023/01/06 01:46:39;;;;;;;0.10;0.10;;;;;;;6.62;100.00;100235.22;5880189;23;20065;-80
2023/01/06 01:49:13;;;;;;;0.00;0.00;;;;;;;6.32;100.00;100219.19;6064330;23;20009;-75
2023/01/06 01:51:42;;;;;;;0.00;0.00;;;;;;;6.33;100.00;100242.56;6120961;23;20001;-75
2023/01/06 01:54:13;;;;;;;0.10;0.10;;;;;;;6.20;100.00;100227.38;6150542;23;20238;-75
2023/01/06 01:56:43;;;;;;;0.00;0.00;;;;;;;6.19;100.00;100231.16;6124469;23;20005;-75
2023/01/06 01:59:12;;;;;;;0.00;0.00;;;;;;;6.09;100.00;100229.09;6124745;23;20009;-74
2023/01/06 02:01:38;;;;;;;0.00;0.00;;;;;;;6.02;100.00;100228.41;6126937;23;20369;-74
2023/01/06 02:04:03;;;;;;;0.08;0.08;;;;;;;5.99;100.00;100243.28;6122354;23;20010;-75
2023/01/06 02:06:29;;;;;;;0.10;0.10;;;;;;;5.92;100.00;100248.78;6099547;23;20087;-75
2023/01/06 02:09:23;;;;;;;0.05;0.05;;;;;;;5.90;100.00;100255.53;6125128;23;20016;-75
2023/01/06 02:11:51;;;;;;;0.00;0.00;;;;;;;5.82;100.00;100254.00;6129555;23;20029;-73
2023/01/06 02:14:19;;;;;;;0.00;0.00;;;;;;;5.75;100.00;100259.56;6121658;23;20028;-74
2023/01/06 02:17:12;;;;;;;0.10;0.10;;;;;;;5.74;100.00;100267.94;6124818;23;20004;-74
2023/01/06 02:19:59;;;;;;;0.00;0.00;;;;;;;5.70;100.00;100273.00;6151815;23;20008;-74
2023/01/06 02:22:59;;;;;;;0.10;0.10;;;;;;;5.67;100.00;100268.06;6146984;23;20088;-74
2023/01/06 02:25:51;;;;;;;0.00;0.00;;;;;;;5.58;100.00;100280.34;6143067;23;20009;-75
2023/01/06 02:28:35;;;;;;;0.00;0.00;;;;;;;5.51;100.00;100285.06;6153261;23;20017;-75
2023/01/06 02:31:27;;;;;;;0.00;0.00;;;;;;;5.42;100.00;100271.84;6127009;23;20023;-74
2023/01/06 02:34:12;;;;;;;0.10;0.10;;;;;;;5.36;100.00;100283.63;6152886;23;20008;-74
2023/01/06 02:37:08;;;;;;;0.10;0.10;;;;;;;5.31;100.00;100294.34;6152922;23;20008;-73
2023/01/06 02:39:56;;;;;;;0.00;0.00;;;;;;;5.27;100.00;100309.47;6148182;23;20012;-74
2023/01/06 02:42:33;;;;;;;0.00;0.00;;;;;;;5.22;100.00;100303.91;6156772;23;20001;-74
2023/01/06 02:45:07;;;;;;;0.10;0.10;;;;;;;5.20;100.00;100306.03;6155905;23;20015;-75
2023/01/06 02:48:02;;;;;;;0.00;0.00;;;;;;;5.17;100.00;100301.88;6154223;23;20380;-74
2023/01/06 02:50:37;;;;;;;;;;;;;;;5.15;100.00;100297.75;6150609;23;20044;-75
2023/01/06 02:53:17;;;;;;;0.00;0.00;;;;;;;5.11;100.00;100300.13;6153862;23;19923;-75
2023/01/06 02:55:50;;;;;;;0.00;0.00;;;;;;;5.05;100.00;100301.03;6153341;23;20009;-74
2023/01/06 02:58:37;;;;;;;0.10;0.10;;;;;;;5.01;100.00;100306.09;6157838;23;20013;-74
2023/01/06 03:01:12;;;;;;;0.00;0.00;;;;;;;4.96;100.00;100308.66;6153127;23;20005;-74
2023/01/06 03:03:41;;;;;;;0.10;0.10;;;;;;;4.91;100.00;100303.13;6150421;23;20016;-74
2023/01/06 03:06:17;;;;;;;0.00;0.00;;;;;;;4.90;100.00;100298.75;6151978;23;20088;-74
2023/01/06 03:08:45;;;;;;;0.05;0.05;;;;;;;4.87;100.00;100304.66;6150633;23;20009;-73
2023/01/06 03:11:11;;;;;;;0.00;0.00;;;;;;;4.84;100.00;100291.56;6154845;23;20360;-74
2023/01/06 03:13:54;;;;;;;0.00;0.00;;;;;;;4.81;100.00;100297.44;6129191;23;20009;-74
2023/01/06 03:16:20;;;;;;;0.00;0.00;;;;;;;4.77;100.00;100290.84;6154267;23;20368;-75
2023/01/06 03:18:50;;;;;;;0.03;0.03;;;;;;;4.69;100.00;100283.88;6127777;23;20020;-74
2023/01/06 03:21:19;;;;;;;0.10;0.10;;;;;;;4.80;100.00;100301.19;6151884;23;20008;-73
2023/01/06 03:23:45;;;;;;;0.00;0.00;;;;;;;4.79;100.00;100310.38;6181310;23;20052;-74
2023/01/06 03:26:11;;;;;;;0.00;0.00;;;;;;;4.78;100.00;100309.56;6177380;23;20549;-74
2023/01/06 03:28:37;;;;;;;0.00;0.00;;;;;;;4.79;100.00;100299.53;6129223;23;20008;-75
2023/01/06 03:31:13;;;;;;;0.10;0.10;;;;;;;4.84;100.00;100305.09;6125599;23;20009;-74
2023/01/06 03:33:47;;;;;;;0.00;0.00;;;;;;;4.85;100.00;100304.06;6155779;23;20020;-75
2023/01/06 03:36:25;;;;;;;;;;;;;;;4.84;100.00;100307.81;6152068;23;20055;-75
2023/01/06 03:39:02;;;;;;;0.00;0.00;;;;;;;4.81;100.00;100313.69;6183788;23;19911;-74
2023/01/06 03:44:57;;;;;;;0.00;0.00;;;;;;;4.81;100.00;100321.81;6175287;23;20048;-75
2023/01/06 03:47:40;;;;;;;0.00;0.00;;;;;;;4.86;100.00;100321.94;6153771;23;20070;-74
2023/01/06 03:50:11;;;;;;;0.00;0.00;;;;;;;4.89;100.00;100316.91;6179746;23;19997;-75
2023/01/06 03:52:48;;;;;;;0.00;0.00;;;;;;;4.91;100.00;100322.09;6176073;23;20005;-74
2023/01/06 03:55:20;;;;;;;0.00;0.00;;;;;;;4.87;100.00;100318.19;6152464;23;20011;-73
2023/01/06 03:57:51;;;;;;;0.00;0.00;;;;;;;4.84;100.00;100314.06;6174394;23;20027;-74
2023/01/06 04:00:24;;;;;;;0.00;0.00;;;;;;;4.82;100.00;100309.91;6155433;23;20059;-75
2023/01/06 04:02:50;;;;;;;0.00;0.00;;;;;;;4.83;100.00;100314.28;6146135;23;20390;-75
2023/01/06 04:05:18;;;;;;;0.00;0.00;;;;;;;4.82;100.00;100304.50;6154145;23;20001;-74
2023/01/06 04:07:44;;;;;;;0.00;0.00;;;;;;;4.82;100.00;100299.06;6173151;23;20055;-74
2023/01/06 04:10:12;;;;;;;0.10;0.10;;;;;;;4.78;100.00;100300.63;6152341;23;20001;-74
2023/01/06 04:12:37;;;;;;;0.00;0.00;;;;;;;4.71;100.00;100298.81;6150145;23;20436;-74
2023/01/06 04:15:09;;;;;;;0.00;0.00;;;;;;;4.67;100.00;100297.63;6152865;23;20036;-74
2023/01/06 04:17:36;;;;;;;0.10;0.10;;;;;;;4.69;100.00;100306.34;6177285;23;20009;-75
2023/01/06 04:20:02;;;;;;;0.00;0.00;;;;;;;4.66;100.00;100306.81;6148549;23;20416;-74
2023/01/06 04:22:28;;;;;;;0.00;0.00;;;;;;;4.66;100.00;100306.00;6154814;23;20019;-74
2023/01/06 04:24:53;;;;;;;0.00;0.00;;;;;;;4.62;100.00;100300.19;6153590;23;20055;-74
2023/01/06 04:27:19;;;;;;;0.00;0.00;;;;;;;4.61;100.00;100303.94;6151401;23;20005;-74
2023/01/06 04:29:44;;;;;;;0.10;0.10;;;;;;;4.57;100.00;100312.78;6172900;23;20131;-75
2023/01/06 04:32:10;;;;;;;0.00;0.00;;;;;;;4.58;100.00;100323.38;6177836;23;20008;-75
2023/01/06 04:34:35;;;;;;;0.00;0.00;;;;;;;4.61;100.00;100324.81;6177584;23;20009;-73
2023/01/06 04:37:00;;;;;;;0.00;0.00;;;;;;;4.61;100.00;100325.63;6171297;23;20087;-74
2023/01/06 04:39:26;;;;;;;0.00;0.00;;;;;;;4.69;100.00;100333.44;6129179;23;20024;-74
2023/01/06 04:41:51;;;;;;;0.00;0.00;;;;;;;4.69;100.00;100330.72;6171958;23;20044;-74
2023/01/06 04:44:17;;;;;;;0.00;0.00;;;;;;;4.70;100.00;100345.09;6154073;23;20340;-75
2023/01/06 04:46:42;;;;;;;0.03;0.03;;;;;;;4.68;100.00;100348.03;6179110;23;20443;-74
2023/01/06 04:49:08;;;;;;;0.00;0.00;;;;;;;4.68;100.00;100347.22;6171975;23;20424;-74
2023/01/06 04:51:33;;;;;;;0.00;0.00;;;;;;;4.67;100.00;100345.56;6178521;23;20095;-73
2023/01/06 04:53:59;;;;;;;0.00;0.00;;;;;;;4.67;100.00;100349.09;6147881;23;20146;-73
2023/01/06 04:56:24;;;;;;;0.00;0.00;;;;;;;4.53;100.00;100339.50;6178994;23;20096;-74
2023/01/06 04:58:54;;;;;;;0.00;0.00;;;;;;;4.59;100.00;100354.00;6173845;23;20058;-75
2023/01/06 05:01:20;;;;;;;0.10;0.10;;;;;;;4.50;100.00;100348.09;6178267;23;20009;-74
2023/01/06 05:03:45;;;;;;;0.00;0.00;;;;;;;4.53;100.00;100345.72;6174826;23;20015;-73
2023/01/06 05:06:11;;;;;;;0.00;0.00;;;;;;;4.56;100.00;100339.03;6175551;23;20005;-74
2023/01/06 05:08:38;;;;;;;0.00;0.00;;;;;;;4.53;100.00;100343.03;6153748;23;20016;-75
2023/01/06 05:11:06;;;;;;;0.03;0.03;;;;;;;4.50;100.00;100338.06;6146644;23;20015;-74
2023/01/06 05:13:32;;;;;;;0.10;0.10;;;;;;;4.53;100.00;100334.91;6176414;23;20015;-74
2023/01/06 05:15:58;;;;;;;0.00;0.00;;;;;;;4.55;100.00;100331.97;6148321;23;20619;-74
2023/01/06 05:18:24;;;;;;;0.10;0.10;;;;;;;4.61;100.00;100330.22;6155031;23;20064;-75
2023/01/06 05:20:53;;;;;;;0.00;0.00;;;;;;;4.62;100.00;100337.31;6175464;23;20004;-75
2023/01/06 05:23:20;;;;;;;0.10;0.10;;;;;;;4.71;100.00;100338.63;6152713;23;20009;-74
2023/01/06 05:25:45;;;;;;;0.00;0.00;;;;;;;4.82;100.00;100337.84;6178835;22;20484;-74
2023/01/06 05:28:12;;;;;;;0.00;0.00;;;;;;;4.92;100.00;100331.88;6198078;23;20017;-75
2023/01/06 05:30:37;;;;;;;0.00;0.00;;;;;;;5.05;100.00;100337.09;6177110;23;20343;-73
2023/01/06 05:33:03;;;;;;;0.00;0.00;;;;;;;5.15;100.00;100330.28;6147951;23;20036;-74
2023/01/06 05:35:28;;;;;;;0.00;0.00;;;;;;;5.31;100.00;100340.44;6178385;23;20009;-75
2023/01/06 05:37:54;;;;;;;0.10;0.10;;;;;;;5.43;100.00;100343.16;6171833;23;20385;-74
2023/01/06 05:40:19;;;;;;;0.00;0.00;;;;;;;5.51;100.00;100339.31;6153385;23;20005;-74
2023/01/06 05:42:45;;;;;;;0.00;0.00;;;;;;;5.57;100.00;100343.78;6178457;23;20313;-74
2023/01/06 05:45:10;;;;;;;0.00;0.00;;;;;;;5.58;100.00;100346.28;6172465;23;20012;-73
2023/01/06 05:47:36;;;;;;;0.00;0.00;;;;;;;5.58;100.00;100345.44;6176654;23;20005;-73
2023/01/06 05:50:02;;;;;;;0.00;0.00;;;;;;;5.63;100.00;100353.69;6181240;23;20013;-72
2023/01/06 05:52:27;;;;;;;0.00;0.00;;;;;;;5.69;100.00;100358.19;6147083;23;20016;-73
2023/01/06 05:54:53;;;;;;;0.00;0.00;;;;;;;5.82;100.00;100357.13;6154864;23;20020;-73
2023/01/06 05:57:18;;;;;;;0.10;0.10;;;;;;;5.86;100.00;100362.91;6174900;23;20036;-73
2023/01/06 05:59:43;;;;;;;0.00;0.00;;;;;;;5.93;100.00;100358.19;6127338;23;20364;-72
2023/01/06 06:02:09;;;;;;;0.10;0.10;;;;;;;5.92;100.00;100356.53;6125656;23;20458;-75
2023/01/06 06:04:34;;;;;;;0.00;0.00;;;;;;;5.84;100.00;100348.75;6129771;23;20063;-72
2023/01/06 06:07:00;;;;;;;0.10;0.10;;;;;;;5.74;100.00;100350.16;6180019;23;20063;-74
2023/01/06 06:09:25;;;;;;;0.10;0.10;;;;;;;5.68;100.00;100348.41;6176638;23;20063;-73
2023/01/06 06:11:53;;;;;;;0.00;0.00;;;;;;;5.69;100.00;100350.03;6178417;23;20009;-73
2023/01/06 06:14:18;;;;;;;0.10;0.10;;;;;;;5.81;100.00;100346.50;6175570;23;20000;-74
2023/01/06 06:16:43;;;;;;;0.10;0.10;;;;;;;5.93;100.00;100361.72;6152539;23;20101;-74
2023/01/06 06:19:11;;;;;;;0.00;0.00;;;;;;;6.05;100.00;100355.50;6175064;23;20313;-74
2023/01/06 06:21:37;;;;;;;0.00;0.00;;;;;;;6.07;100.00;100348.75;6177431;23;20001;-73
2023/01/06 06:24:02;;;;;;;0.10;0.10;;;;;;;6.13;100.00;100351.59;6180215;23;20336;-73
2023/01/06 06:26:28;;;;;;;0.00;0.00;;;;;;;6.15;100.00;100368.47;6150774;23;20056;-74
2023/01/06 06:28:53;;;;;;;0.10;0.10;;;;;;;6.16;100.00;100361.97;6153146;23;20013;-73
2023/01/06 06:31:25;;;;;;;0.05;0.05;;;;;;;6.05;100.00;100350.88;6175420;23;20008;-74
2023/01/06 06:33:56;;;;;;;0.10;0.10;;;;;;;5.90;100.00;100353.25;6181790;23;20005;-74
2023/01/06 06:36:22;;;;;;;0.00;0.00;;;;;;;5.86;100.00;100357.50;6149216;23;20013;-73
2023/01/06 06:38:49;;;;;;;0.05;0.05;;;;;;;5.76;100.00;100355.34;6153940;23;20001;-73
2023/01/06 06:41:15;;;;;;;0.00;0.00;;;;;;;5.69;100.00;100363.59;6150502;23;20383;-74
2023/01/06 06:43:41;;;;;;;0.10;0.10;;;;;;;5.58;100.00;100353.59;6154010;23;20097;-73
2023/01/06 06:46:06;;;;;;;0.03;0.03;;;;;;;5.58;100.00;100356.31;6151108;23;20005;-73
2023/01/06 06:48:32;;;;;;;0.00;0.00;;;;;;;5.66;100.00;100355.94;6175072;23;19997;-72
2023/01/06 06:50:59;;;;;;;0.00;0.00;;;;;;;5.74;100.00;100371.06;6153550;23;20005;-73
2023/01/06 06:53:25;;;;;;;0.00;0.00;;;;;;;5.82;100.00;100378.00;6152371;23;20004;-74
2023/01/06 06:55:51;;;;;;;0.00;0.00;;;;;;;5.83;100.00;100374.25;6124113;23;20016;-74
2023/01/06 06:58:17;;;;;;;0.08;0.08;;;;;;;5.81;100.00;100371.78;6154087;23;20013;-74
2023/01/06 07:00:42;;;;;;;0.05;0.05;;;;;;;5.76;100.00;100369.75;6123650;23;20035;-74
2023/01/06 07:03:07;;;;;;;0.00;0.00;;;;;;;5.74;100.00;100377.31;6152074;23;20490;-74
2023/01/06 07:05:58;;;;;;;0.00;0.00;;;;;;;5.68;100.00;100355.69;6153648;23;20062;-81
2023/01/06 07:08:23;;;;;;;0.00;0.00;;;;;;;5.60;100.00;100365.84;6154726;23;20008;-78
2023/01/06 07:10:51;;;;;;;0.10;0.10;;;;;;;5.65;100.00;100367.03;6149226;23;20017;-80
2023/01/06 07:13:17;;;;;;;0.00;0.00;;;;;;;5.59;100.00;100368.78;6132321;23;20005;-80
2023/01/06 07:15:42;;;;;;;0.10;0.10;;;;;;;5.55;100.00;100362.19;6128666;23;20222;-84
2023/01/06 07:18:28;;;;;;;0.10;0.10;;;;;;;5.46;100.00;100358.16;6158547;23;20320;-85
2023/01/06 07:20:54;;;;;;;0.00;0.00;;;;;;;5.34;100.00;100356.25;6132029;23;20008;-84
2023/01/06 07:23:27;;;;;;;0.05;0.05;;;;;;;5.25;100.00;100352.22;6163117;23;20013;-83
2023/01/06 07:26:01;;;;;;;0.00;0.00;;;;;;;5.15;100.00;100360.09;6160120;23;20024;-84
2023/01/06 07:28:48;;;;;;;0.00;0.00;;;;;;;4.99;100.00;100343.44;6190717;23;20411;-84
2023/01/06 07:31:24;;;;;;;0.00;0.00;;;;;;;4.89;100.00;100348.59;6188655;23;20483;-84
2023/01/06 07:33:49;;;;;;;0.03;0.03;;;;;;;4.94;100.00;100365.00;6164156;23;20018;-82
2023/01/06 07:36:37;;;;;;;0.10;0.10;;;;;;;4.93;100.00;100370.66;6184813;23;20387;-81
2023/01/06 07:39:02;;;;;;;0.10;0.10;;;;;;;4.88;100.00;100374.88;6186859;23;20012;-82
2023/01/06 07:41:30;;;;;;;0.00;0.00;;;;;;;4.80;100.00;100360.81;6177473;23;19997;-81
2023/01/06 07:44:01;;;;;;;0.10;0.10;;;;;;;4.68;100.00;100345.31;6182922;23;20078;-82
2023/01/06 07:46:27;;;;;;;0.10;0.10;;;;;;;4.76;100.00;100359.59;6185228;23;20059;-81
2023/01/06 07:48:55;;;;;;;0.00;0.00;;;;;;;4.68;100.00;100350.75;6183415;23;20012;-82
2023/01/06 07:51:33;;;;;;;;;;;;;;;;;;;;;
2023/01/06 07:54:12;;;;;;;;;;;;;;;;;;;;;
2023/01/06 07:56:37;;;;;;;0.00;0.00;;;;;;;4.69;100.00;100370.56;6214784;23;20095;-82
2023/01/06 07:59:03;;;;;;;0.00;0.00;;;;;;;4.68;100.00;100377.81;6158641;23;20000;-83
2023/01/06 08:01:35;;;;;;;0.00;0.00;;;;;;;4.59;100.00;100365.66;6161701;23;20009;-84
2023/01/06 08:04:00;;;;;;;0.00;0.00;;;;;;;4.52;100.00;100356.78;6181985;23;20339;-83
2023/01/06 08:06:26;;;;;;;0.05;0.05;;;;;;;4.58;100.00;100369.41;6185994;23;20008;-82
2023/01/06 08:09:03;;;;;;;0.00;0.00;;;;;;;4.57;100.00;100366.94;6161369;23;20372;-84
2023/01/06 08:11:41;;;;;;;0.10;0.10;;;;;;;4.62;100.00;100372.50;6186320;23;20005;-80
2023/01/06 08:14:10;;;;;;;0.00;0.00;;;;;;;4.71;100.00;100382.78;6182303;23;19997;-83
2023/01/06 08:16:39;;;;;;;0.00;0.00;;;;;;;4.78;100.00;100374.59;6161215;23;20019;-81
2023/01/06 08:19:06;;;;;;;0.00;0.00;;;;;;;4.94;100.00;100388.56;6183078;23;20016;-82
2023/01/06 08:21:31;;;;;;;0.00;0.00;;;;;;;4.92;100.00;100375.25;6185407;23;20375;-82
2023/01/06 08:23:57;;;;;;;0.10;0.10;;;;;;;4.90;100.00;100374.63;6187071;23;20042;-83
2023/01/06 08:26:23;;;;;;;0.00;0.00;;;;;;;4.83;100.00;100373.91;6183737;23;20008;-81
2023/01/06 08:28:48;;;;;;;0.10;0.10;;;;;;;4.74;100.00;100361.72;6188404;23;20000;-83
2023/01/06 08:34:17;;;;;;;;;;;;;;;;;;;;;
2023/01/06 08:36:44;;;;;;;0.10;0.10;;;;;;;4.89;100.00;100402.78;6209549;23;20080;-82
2023/01/06 08:39:12;;;;;;;0.00;0.00;;;;;;;4.78;100.00;100376.47;6190035;23;20001;-86
2023/01/06 08:41:38;;;;;;;0.00;0.00;;;;;;;4.88;100.00;100388.41;6188579;23;20023;-85
2023/01/06 08:44:32;;;;;;;0.00;0.00;;;;;;;4.78;100.00;100363.75;6192579;23;20004;-85
2023/01/06 08:47:01;;;;;;;0.10;0.10;;;;;;;4.99;100.00;100396.81;6187165;23;20004;-84
2023/01/06 08:49:26;;;;;;;0.10;0.10;;;;;;;4.89;100.00;100373.81;6189805;23;20004;-85
2023/01/06 08:51:52;;;;;;;0.10;0.10;;;;;;;5.17;100.00;100390.50;6183290;23;20004;-84
2023/01/06 08:57:57;;;;;;;0.10;0.10;;;;;;;5.80;100.00;100402.69;6210960;23;20011;-81
2023/01/06 09:00:23;;;;;;;0.10;0.10;;;;;;;5.86;100.00;100379.19;6158719;23;20062;-82
2023/01/06 09:02:51;;;;;;;0.10;0.10;;;;;;;6.14;100.00;100385.84;6187738;23;20008;-81
2023/01/06 09:05:17;;;;;;;0.00;0.00;;;;;;;6.33;100.00;100378.38;6164409;23;20438;-80
2023/01/06 09:07:51;;;;;;;0.00;0.00;;;;;;;6.61;100.00;100380.31;6158322;23;20092;-82
2023/01/06 09:10:31;;;;;;;0.00;0.00;;;;;;;6.91;100.00;100390.16;6184784;23;20001;-81
2023/01/06 09:12:57;;;;;;;0.00;0.00;;;;;;;7.23;100.00;100403.22;6184928;23;20009;-81
2023/01/06 09:15:23;;;;;;;0.10;0.10;;;;;;;7.33;100.00;100403.44;6185332;23;20012;-80
2023/01/06 09:17:48;;;;;;;0.10;0.10;;;;;;;7.45;100.00;100384.31;6130852;23;20005;-80
2023/01/06 09:20:32;;;;;;;0.08;0.08;;;;;;;7.56;100.00;100390.75;6184035;23;20001;-80
2023/01/06 09:23:02;;;;;;;0.10;0.10;;;;;;;7.57;100.00;100382.31;6156363;23;20111;-80
2023/01/06 09:25:27;;;;;;;0.00;0.00;;;;;;;7.81;100.00;100393.88;6186615;23;20404;-80
2023/01/06 09:27:53;;;;;;;0.00;0.00;;;;;;;8.11;100.00;100383.69;6182125;23;20441;-81
2023/01/06 09:30:28;;;;;;;;;;;;;;;;;;;;;
2023/01/06 09:32:54;;;;;;;0.10;0.10;;;;;;;8.82;100.00;100386.53;6158854;23;20056;-79
2023/01/06 09:35:22;;;;;;;0.00;0.00;;;;;;;9.15;100.00;100403.78;6161559;23;20036;-81
2023/01/06 09:37:48;;;;;;;0.00;0.00;;;;;;;9.56;100.00;100384.25;6182054;23;20013;-80
2023/01/06 09:40:22;;;;;;;0.00;0.00;;;;;;;10.18;100.00;100391.00;6186943;23;20031;-80
2023/01/06 09:43:25;;;;;;;0.10;0.10;;;;;;;10.96;100.00;100376.56;6185790;23;20001;-79
2023/01/06 09:45:55;;;;;;;0.00;0.00;;;;;;;12.01;100.00;100399.13;6157315;23;20090;-80
2023/01/06 09:48:28;;;;;;;0.10;0.10;;;;;;;11.88;100.00;100399.66;6186196;23;20039;-82
2023/01/06 09:50:59;;;;;;;0.00;0.00;;;;;;;12.02;100.00;100403.50;6186617;23;20004;-81
2023/01/06 09:53:35;;;;;;;0.00;0.00;;;;;;;12.49;100.00;100396.00;6185172;23;20008;-81
2023/01/06 09:56:06;;;;;;;0.00;0.00;;;;;;;14.10;100.00;100391.91;6186373;23;20004;-82
2023/01/06 09:58:39;;;;;;;0.00;0.00;;;;;;;14.64;100.00;100400.16;6187389;23;20047;-81
2023/01/06 10:01:14;;;;;;;0.00;0.00;;;;;;;14.14;100.00;100409.47;6186199;23;20012;-80
2023/01/06 10:03:40;;;;;;;0.00;0.00;;;;;;;14.49;100.00;100407.47;6187908;23;20035;-81
2023/01/06 10:06:24;;;;;;;0.10;0.10;;;;;;;15.99;100.00;100424.66;6158587;23;20019;-80
2023/01/06 10:09:21;;;;;;;0.00;0.00;;;;;;;16.54;100.00;100427.53;6188122;23;20091;-79
2023/01/06 10:12:11;;;;;;;0.00;0.00;;;;;;;16.54;100.00;100419.25;6186534;23;20062;-80
2023/01/06 10:15:08;;;;;;;0.10;0.10;;;;;;;16.83;100.00;100412.56;6181934;23;20004;-80
2023/01/06 10:18:00;;;;;;;0.00;0.00;;;;;;;17.45;100.00;100411.25;6183119;23;20016;-79
2023/01/06 10:20:44;;;;;;;0.10;0.10;;;;;;;17.82;100.00;100414.78;6186431;23;20011;-81
2023/01/06 10:23:25;;;;;;;0.00;0.00;;;;;;;17.95;100.00;100413.91;6184289;23;20012;-81
2023/01/06 10:25:59;;;;;;;0.00;0.00;;;;;;;17.96;100.00;100415.53;6186039;23;20075;-81
2023/01/06 10:28:32;;;;;;;0.00;0.00;;;;;;;17.84;100.00;100395.91;6187902;23;20004;-82
2023/01/06 10:31:03;;;;;;;0.00;0.00;;;;;;;16.81;100.00;100392.75;6161296;23;20062;-84
2023/01/06 10:33:42;;;;;;;0.00;0.00;;;;;;;15.39;100.00;100393.09;6188441;23;20008;-79
2023/01/06 10:36:12;;;;;;;0.00;0.00;;;;;;;14.61;100.00;100389.72;6179906;23;20000;-80
2023/01/06 10:38:44;;;;;;;0.00;0.00;;;;;;;13.78;100.00;100396.09;6185581;23;20008;-80
2023/01/06 10:41:38;;;;;;;0.00;0.00;;;;;;;13.05;100.00;100375.72;6185337;23;20540;-78
2023/01/06 10:44:12;;;;;;;0.00;0.00;;;;;;;12.74;100.00;100389.56;6185545;23;20825;-81
2023/01/06 10:46:44;;;;;;;0.00;0.00;;;;;;;12.29;100.00;100388.66;6185640;23;20020;-78
2023/01/06 10:49:16;;;;;;;0.00;0.00;;;;;;;12.32;100.00;100382.59;6186261;23;20000;-79
2023/01/06 10:51:50;;;;;;;0.00;0.00;;;;;;;13.28;100.00;100373.38;6188210;23;20031;-80
2023/01/06 10:54:26;;;;;;;0.00;0.00;;;;;;;14.23;100.00;100379.41;6181236;23;20000;-76
2023/01/06 10:57:00;;;;;;;0.00;0.00;;;;;;;15.11;100.00;100381.09;6185581;23;20004;-82
2023/01/06 10:59:25;;;;;;;0.00;0.00;;;;;;;15.06;100.00;100384.75;6189522;23;20005;-76
2023/01/06 11:01:54;;;;;;;0.00;0.00;;;;;;;14.60;100.00;100388.06;6161789;23;20062;-78
2023/01/06 11:04:20;;;;;;;0.10;0.10;;;;;;;14.02;100.00;100378.81;6179996;23;20008;-79
2023/01/06 11:07:00;;;;;;;0.00;0.00;;;;;;;13.44;100.00;100369.41;6161133;23;20016;-78
2023/01/06 11:09:35;;;;;;;0.00;0.00;;;;;;;13.23;100.00;100370.66;6183320;23;20008;-79
2023/01/06 11:13:04;;;;;;;0.00;0.00;;;;;;;13.21;100.00;100353.63;6185848;23;20009;-78
2023/01/06 11:16:06;;;;;;;;;;;;;;;;;;;;;
2023/01/06 11:19:28;;;;;;;0.05;0.05;;;;;;;17.05;100.00;100336.47;6127577;23;20497;-81
2023/01/06 11:22:01;;;;;;;0.10;0.10;;;;;;;17.96;100.00;100329.78;6125773;23;20029;-80
2023/01/06 11:24:26;;;;;;;0.00;0.00;;;;;;;17.52;100.00;100338.91;6117275;23;20100;-81
2023/01/06 11:27:15;;;;;;;0.00;0.00;;;;;;;18.84;100.00;100354.97;6182707;23;20007;-80
2023/01/06 11:29:41;;;;;;;0.00;0.00;;;;;;;21.65;100.00;100343.59;6184809;23;20008;-84
2023/01/06 11:32:33;;;;;;;0.00;0.00;;;;;;;23.39;91.93;100351.56;6188723;23;20123;-86
2023/01/06 11:35:07;;;;;;;0.00;0.00;;;;;;;24.12;84.79;100332.78;6178761;23;20497;-79
2023/01/06 11:37:37;;;;;;;;;;;;;;;23.06;77.95;100333.06;6186708;23;20092;-78
2023/01/06 11:40:18;;;;;;;0.05;0.05;;;;;;;21.26;89.10;100327.91;6185488;23;19908;-82
2023/01/06 11:43:09;;;;;;;0.00;0.00;;;;;;;20.68;82.68;100321.31;6215824;23;20000;-82
2023/01/06 11:45:45;;;;;;;0.00;0.00;;;;;;;20.41;83.95;100303.94;6214246;23;20004;-81
2023/01/06 11:48:42;;;;;;;0.00;0.00;;;;;;;20.13;84.14;100314.72;6191237;23;20008;-83
2023/01/06 11:51:23;;;;;;;;;;;;;;;;;;;;;
2023/01/06 11:54:24;;;;;;;0.08;0.08;;;;;;;19.42;90.30;100303.00;6212239;23;20083;-81
2023/01/06 11:57:20;;;;;;;0.00;0.00;;;;;;;20.06;85.73;100298.56;6186200;23;20129;-84
2023/01/06 12:00:01;;;;;;;0.00;0.00;;;;;;;18.22;91.55;100279.25;6185801;23;20015;-79
2023/01/06 12:02:54;;;;;;;0.00;0.00;;;;;;;16.34;92.90;100256.81;6185321;23;20009;-85
2023/01/06 12:05:55;;;;;;;;;;;;;;;;;;;;;
2023/01/06 12:08:56;;;;;;;;;;;;;;;;;;;;;
2023/01/06 12:11:43;;;;;;;0.00;0.00;;;;;;;16.63;100.00;100230.78;6213368;23;20052;-80
2023/01/06 12:14:31;;;;;;;0.00;0.00;;;;;;;16.84;91.01;100231.94;6184961;23;20000;-80
2023/01/06 12:17:32;;;;;;;0.00;0.00;;;;;;;16.38;89.22;100241.28;6187412;23;20000;-79
2023/01/06 12:20:19;;;;;;;0.00;0.00;;;;;;;15.77;93.62;100237.81;6165693;23;20059;-79
2023/01/06 12:22:51;;;;;;;0.00;0.00;;;;;;;15.11;97.02;100233.22;6179736;23;20424;-79
2023/01/06 12:25:54;;;;;;;0.00;0.00;;;;;;;14.81;95.23;100227.09;6194341;23;20021;-79
2023/01/06 12:28:33;;;;;;;0.00;0.00;;;;;;;14.00;99.28;100209.78;6152407;23;20072;-77
2023/01/06 12:31:09;;;;;;;0.00;0.00;;;;;;;13.59;97.33;100211.06;6150250;23;20004;-79
2023/01/06 12:33:44;;;;;;;0.00;0.00;;;;;;;13.30;100.00;100213.81;6153611;23;20083;-78
2023/01/06 12:36:37;;;;;;;0.00;0.00;;;;;;;13.54;100.00;100209.19;6149978;23;20040;-80